Time;durP1;ratioP1;P1;durP2;ratioP2;P2;SDS_P1;SDS_P2;PMS_P1;PMS_P2;Temp;Humidity;BMP_temperature;BMP_pressure;BME280_temperature;BME280_humidity;BME280_pressure;Samples;Min_cycle;Max_cycle;Signal;HPM_P1;HPM_P2
2023/12/15 00:00:13;;;;;;;48.95;26.15;;;;;;;;;;5113117;28;20061;-73
2023/12/15 00:02:40;;;;;;;49.75;26.08;;;;;;;;;;5114108;28;20446;-74
2023/12/15 00:05:06;;;;;;;52.90;25.98;;;;;;;;;;5113783;28;20053;-74
2023/12/15 00:07:32;;;;;;;51.30;25.33;;;;;;;;;;5114667;28;20062;-74
2023/12/15 00:09:58;;;;;;;56.63;27.45;;;;;;;;;;5113076;28;20475;-74
2023/12/15 00:12:24;;;;;;;53.75;27.15;;;;;;;;;;5112926;28;20032;-75
2023/12/15 00:14:50;;;;;;;46.20;25.75;;;;;;;;;;5113918;28;20024;-74
2023/12/15 00:17:17;;;;;;;53.20;27.42;;;;;;;;;;5114495;28;20076;-74
2023/12/15 00:19:43;;;;;;;49.85;26.17;;;;;;;;;;5114031;28;20089;-74
2023/12/15 00:22:09;;;;;;;56.90;28.45;;;;;;;;;;5115135;28;20355;-74
2023/12/15 00:24:35;;;;;;;59.55;28.17;;;;;;;;;;5114328;28;20023;-73
2023/12/15 00:27:01;;;;;;;56.50;28.60;;;;;;;;;;5114667;28;20027;-74
2023/12/15 00:29:26;;;;;;;55.63;28.70;;;;;;;;;;5113942;28;20399;-73
2023/12/15 00:31:52;;;;;;;60.55;29.45;;;;;;;;;;5113919;28;20022;-74
2023/12/15 00:34:18;;;;;;;57.33;28.42;;;;;;;;;;5113996;28;20024;-74
2023/12/15 00:36:44;;;;;;;55.85;28.73;;;;;;;;;;5113904;28;20015;-73
2023/12/15 00:39:10;;;;;;;57.17;29.23;;;;;;;;;;5113398;28;20462;-73
2023/12/15 00:41:37;;;;;;;57.78;30.20;;;;;;;;;;5113421;28;20027;-73
2023/12/15 00:44:03;;;;;;;57.50;27.80;;;;;;;;;;5113510;28;20023;-74
2023/12/15 00:46:29;;;;;;;56.97;29.33;;;;;;;;;;5113391;28;20348;-73
2023/12/15 00:48:55;;;;;;;62.28;29.35;;;;;;;;;;5113410;28;20118;-74
2023/12/15 00:51:21;;;;;;;54.45;27.88;;;;;;;;;;5113713;28;20047;-74
2023/12/15 00:53:47;;;;;;;57.20;29.75;;;;;;;;;;5113722;28;20427;-73
2023/12/15 00:56:13;;;;;;;68.82;30.60;;;;;;;;;;5113102;28;20027;-73
2023/12/15 00:58:39;;;;;;;62.38;29.88;;;;;;;;;;5112842;28;20028;-74
2023/12/15 01:01:06;;;;;;;62.80;29.42;;;;;;;;;;5109687;28;20031;-73
2023/12/15 01:03:32;;;;;;;56.80;30.25;;;;;;;;;;5108209;28;20368;-73
2023/12/15 01:05:58;;;;;;;66.22;31.10;;;;;;;;;;5100676;28;20379;-74
2023/12/15 01:08:24;;;;;;;55.05;29.80;;;;;;;;;;5093500;28;20024;-74
2023/12/15 01:10:50;;;;;;;62.95;29.17;;;;;;;;;;5093082;28;20500;-75
2023/12/15 01:13:17;;;;;;;58.35;28.80;;;;;;;;;;5093018;28;20028;-74
2023/12/15 01:15:42;;;;;;;59.78;29.55;;;;;;;;;;5093144;28;20024;-75
2023/12/15 01:18:08;;;;;;;63.90;28.90;;;;;;;;;;5092595;28;20028;-73
2023/12/15 01:20:34;;;;;;;60.80;30.85;;;;;;;;;;5092371;28;20395;-74
2023/12/15 01:23:00;;;;;;;57.40;28.95;;;;;;;;;;5092430;28;20081;-73
2023/12/15 01:25:26;;;;;;;55.55;29.42;;;;;;;;;;5093088;28;20059;-73
2023/12/15 01:27:52;;;;;;;61.35;30.60;;;;;;;;;;5093042;28;20028;-74
2023/12/15 01:30:18;;;;;;;63.72;30.02;;;;;;;;;;5092624;28;20093;-74
2023/12/15 01:32:44;;;;;;;51.95;27.15;;;;;;;;;;5093380;28;20029;-74
2023/12/15 01:35:10;;;;;;;54.42;28.52;;;;;;;;;;5092292;28;20027;-74
2023/12/15 01:37:36;;;;;;;55.08;28.48;;;;;;;;;;5094285;28;20035;-73
2023/12/15 01:40:02;;;;;;;64.05;29.33;;;;;;;;;;5097035;28;20023;-73
2023/12/15 01:42:29;;;;;;;60.67;29.17;;;;;;;;;;5097603;28;20024;-73
2023/12/15 01:44:55;;;;;;;59.97;30.15;;;;;;;;;;5095594;28;20030;-74
2023/12/15 01:47:24;;;;;;;59.75;28.83;;;;;;;;;;5092278;28;20056;-75
2023/12/15 01:49:51;;;;;;;56.45;29.08;;;;;;;;;;5095746;28;20083;-74
2023/12/15 01:52:17;;;;;;;56.90;28.52;;;;;;;;;;5094282;28;20024;-73
2023/12/15 01:54:43;;;;;;;54.53;29.52;;;;;;;;;;5091749;28;20020;-73
2023/12/15 01:57:10;;;;;;;58.60;28.27;;;;;;;;;;5095308;28;20021;-73
2023/12/15 01:59:46;;;;;;;49.65;27.08;;;;;;;;;;5098192;28;20210;-74
2023/12/15 02:02:13;;;;;;;51.53;27.98;;;;;;;;;;5096766;28;20024;-74
2023/12/15 02:04:39;;;;;;;52.28;26.48;;;;;;;;;;5095086;28;20031;-73
2023/12/15 02:07:05;;;;;;;53.15;27.02;;;;;;;;;;5092046;28;20047;-73
2023/12/15 02:09:31;;;;;;;59.33;28.35;;;;;;;;;;5091466;28;20372;-73
2023/12/15 02:11:57;;;;;;;47.55;27.02;;;;;;;;;;5092312;28;20065;-74
2023/12/15 02:14:23;;;;;;;53.20;25.70;;;;;;;;;;5092073;28;20080;-74
2023/12/15 02:16:49;;;;;;;48.83;27.15;;;;;;;;;;5091920;28;20027;-74
2023/12/15 02:19:15;;;;;;;53.65;27.70;;;;;;;;;;5091533;28;20024;-74
2023/12/15 02:21:41;;;;;;;47.67;26.17;;;;;;;;;;5091550;28;20062;-74
2023/12/15 02:24:07;;;;;;;52.65;26.73;;;;;;;;;;5091720;28;20463;-74
2023/12/15 02:26:33;;;;;;;57.17;27.40;;;;;;;;;;5091004;28;20034;-73
2023/12/15 02:28:59;;;;;;;54.97;26.35;;;;;;;;;;5091238;28;20106;-74
2023/12/15 02:31:25;;;;;;;49.22;26.80;;;;;;;;;;5091550;28;20021;-73
2023/12/15 02:33:53;;;;;;;55.55;28.85;;;;;;;;;;5091532;28;20024;-73
2023/12/15 02:36:22;;;;;;;56.75;28.67;;;;;;;;;;5092184;28;20016;-74
2023/12/15 02:38:49;;;;;;;56.72;27.98;;;;;;;;;;5092534;28;20053;-74
2023/12/15 02:41:15;;;;;;;52.45;28.00;;;;;;;;;;5091839;28;20016;-72
2023/12/15 02:43:41;;;;;;;59.47;28.50;;;;;;;;;;5091659;28;20071;-74
2023/12/15 02:46:07;;;;;;;57.30;28.65;;;;;;;;;;5095403;28;20016;-74
2023/12/15 02:48:33;;;;;;;54.35;27.55;;;;;;;;;;5095282;28;20410;-74
2023/12/15 02:50:59;;;;;;;53.70;28.50;;;;;;;;;;5095150;28;20032;-74
2023/12/15 02:53:25;;;;;;;54.42;28.50;;;;;;;;;;5095643;28;20031;-73
2023/12/15 02:55:51;;;;;;;53.05;27.90;;;;;;;;;;5095355;28;20024;-73
2023/12/15 02:58:18;;;;;;;57.97;27.95;;;;;;;;;;5095336;28;20510;-74
2023/12/15 03:00:44;;;;;;;64.75;28.52;;;;;;;;;;5095294;28;20114;-73
2023/12/15 03:03:10;;;;;;;54.95;28.25;;;;;;;;;;5095017;28;20550;-73
2023/12/15 03:05:36;;;;;;;59.00;28.92;;;;;;;;;;5095175;28;20024;-73
2023/12/15 03:08:02;;;;;;;61.97;27.70;;;;;;;;;;5094935;28;20028;-73
2023/12/15 03:10:28;;;;;;;59.40;30.40;;;;;;;;;;5094885;28;20372;-74
2023/12/15 03:12:54;;;;;;;56.67;29.58;;;;;;;;;;5095634;28;20035;-75
2023/12/15 03:15:20;;;;;;;56.10;29.05;;;;;;;;;;5095670;28;20103;-74
2023/12/15 03:17:46;;;;;;;65.55;29.77;;;;;;;;;;5095926;28;20020;-75
2023/12/15 03:20:12;;;;;;;54.85;28.70;;;;;;;;;;5095248;28;20062;-74
2023/12/15 03:22:38;;;;;;;54.42;27.88;;;;;;;;;;5095157;28;20063;-75
2023/12/15 03:25:05;;;;;;;60.78;29.50;;;;;;;;;;5095846;28;20147;-74
2023/12/15 03:27:31;;;;;;;57.75;28.92;;;;;;;;;;5095596;28;20032;-74
2023/12/15 03:29:57;;;;;;;52.50;27.50;;;;;;;;;;5094716;28;20080;-74
2023/12/15 03:32:23;;;;;;;59.88;30.05;;;;;;;;;;5094630;28;20432;-74
2023/12/15 03:34:49;;;;;;;54.92;28.65;;;;;;;;;;5094770;28;20075;-74
2023/12/15 03:37:16;;;;;;;61.47;30.63;;;;;;;;;;5095444;28;20497;-75
2023/12/15 03:39:42;;;;;;;64.80;29.38;;;;;;;;;;5097756;28;20035;-76
2023/12/15 03:42:08;;;;;;;58.10;30.02;;;;;;;;;;5097165;28;20060;-75
2023/12/15 03:44:36;;;;;;;63.38;32.28;;;;;;;;;;5097395;28;20039;-75
2023/12/15 03:47:02;;;;;;;67.15;31.35;;;;;;;;;;5114577;28;20080;-74
2023/12/15 03:49:28;;;;;;;62.03;32.75;;;;;;;;;;5113505;28;20041;-74
2023/12/15 03:51:54;;;;;;;71.57;32.85;;;;;;;;;;5114491;28;20078;-75
2023/12/15 03:54:20;;;;;;;62.33;31.20;;;;;;;;;;5114177;28;20024;-74
2023/12/15 03:56:46;;;;;;;60.65;31.65;;;;;;;;;;5113728;28;20024;-74
2023/12/15 03:59:12;;;;;;;64.72;32.35;;;;;;;;;;5113905;28;20036;-74
2023/12/15 04:01:38;;;;;;;62.60;31.38;;;;;;;;;;5114970;28;20051;-73
2023/12/15 04:04:04;;;;;;;67.97;32.25;;;;;;;;;;5115031;28;20490;-74
2023/12/15 04:06:30;;;;;;;59.42;30.80;;;;;;;;;;5115787;28;20030;-75
2023/12/15 04:08:56;;;;;;;63.38;33.60;;;;;;;;;;5114551;28;20053;-75
2023/12/15 04:11:22;;;;;;;68.43;33.20;;;;;;;;;;5115070;28;20376;-75
2023/12/15 04:13:48;;;;;;;67.13;33.28;;;;;;;;;;5104080;28;20062;-73
2023/12/15 04:16:14;;;;;;;70.10;33.90;;;;;;;;;;5094279;28;20020;-74
2023/12/15 04:18:40;;;;;;;64.82;33.42;;;;;;;;;;5093744;28;20074;-73
2023/12/15 04:21:07;;;;;;;68.70;34.95;;;;;;;;;;5093432;28;20036;-75
2023/12/15 04:23:33;;;;;;;66.00;33.22;;;;;;;;;;5093599;28;20047;-73
2023/12/15 04:25:59;;;;;;;67.40;34.03;;;;;;;;;;5093888;28;20031;-73
2023/12/15 04:28:25;;;;;;;78.20;35.42;;;;;;;;;;5093410;28;20330;-72
2023/12/15 04:30:51;;;;;;;70.68;33.92;;;;;;;;;;5093168;28;20380;-75
2023/12/15 04:33:17;;;;;;;75.63;34.60;;;;;;;;;;5093158;28;20020;-74
2023/12/15 04:35:43;;;;;;;66.10;34.15;;;;;;;;;;5093220;28;20024;-74
2023/12/15 04:38:09;;;;;;;67.93;33.95;;;;;;;;;;5093872;28;20020;-74
2023/12/15 04:40:35;;;;;;;71.45;34.38;;;;;;;;;;5098254;28;20080;-74
2023/12/15 04:43:01;;;;;;;75.53;35.72;;;;;;;;;;5094592;28;20024;-74
2023/12/15 04:45:27;;;;;;;74.32;34.85;;;;;;;;;;5093933;28;20365;-75
2023/12/15 04:47:54;;;;;;;70.35;35.42;;;;;;;;;;5095365;28;20047;-73
2023/12/15 04:50:20;;;;;;;76.93;36.72;;;;;;;;;;5093708;28;20105;-72
2023/12/15 04:52:46;;;;;;;77.72;37.33;;;;;;;;;;5093018;28;20364;-73
2023/12/15 04:55:12;;;;;;;84.93;37.78;;;;;;;;;;5093121;28;20028;-74
2023/12/15 04:57:38;;;;;;;77.57;37.67;;;;;;;;;;5094919;28;20020;-74
2023/12/15 05:00:05;;;;;;;77.88;37.10;;;;;;;;;;5096576;28;20032;-72
2023/12/15 05:02:31;;;;;;;79.13;37.97;;;;;;;;;;5092373;28;20024;-74
2023/12/15 05:04:57;;;;;;;80.57;37.28;;;;;;;;;;5092300;28;20032;-74
2023/12/15 05:07:23;;;;;;;83.43;37.45;;;;;;;;;;5092635;28;20072;-74
2023/12/15 05:09:49;;;;;;;82.32;40.33;;;;;;;;;;5093591;28;20502;-74
2023/12/15 05:12:15;;;;;;;80.80;38.35;;;;;;;;;;5093870;28;20028;-75
2023/12/15 05:14:41;;;;;;;82.18;39.25;;;;;;;;;;5095068;28;20046;-74
2023/12/15 05:17:07;;;;;;;82.15;38.70;;;;;;;;;;5112574;28;20083;-74
2023/12/15 05:19:33;;;;;;;79.70;38.47;;;;;;;;;;5115676;28;20031;-75
2023/12/15 05:21:59;;;;;;;79.22;37.70;;;;;;;;;;5096846;28;20028;-74
2023/12/15 05:24:25;;;;;;;83.05;39.33;;;;;;;;;;5092428;28;20106;-75
2023/12/15 05:26:51;;;;;;;82.55;37.25;;;;;;;;;;5092532;28;20024;-74
2023/12/15 05:29:17;;;;;;;77.25;37.58;;;;;;;;;;5091898;28;20036;-75
2023/12/15 05:31:46;;;;;;;86.10;38.83;;;;;;;;;;5092148;28;20099;-73
2023/12/15 05:34:12;;;;;;;78.18;37.90;;;;;;;;;;5092011;28;20099;-74
2023/12/15 05:36:39;;;;;;;83.47;38.78;;;;;;;;;;5092417;28;20052;-74
2023/12/15 05:39:05;;;;;;;74.78;37.20;;;;;;;;;;5092307;28;20016;-75
2023/12/15 05:41:31;;;;;;;82.75;38.30;;;;;;;;;;5092310;28;20030;-74
2023/12/15 05:43:57;;;;;;;77.03;37.70;;;;;;;;;;5091859;28;20023;-74
2023/12/15 05:46:23;;;;;;;76.82;38.33;;;;;;;;;;5092356;28;20356;-75
2023/12/15 05:48:49;;;;;;;76.35;37.35;;;;;;;;;;5093211;28;20026;-77
2023/12/15 05:51:15;;;;;;;82.68;39.80;;;;;;;;;;5093265;28;20032;-75
2023/12/15 05:53:42;;;;;;;83.20;39.65;;;;;;;;;;5094622;28;20051;-74
2023/12/15 05:56:08;;;;;;;88.28;40.20;;;;;;;;;;5097880;28;20426;-74
2023/12/15 05:58:34;;;;;;;82.82;39.85;;;;;;;;;;5103705;28;20403;-75
2023/12/15 06:01:00;;;;;;;89.22;40.92;;;;;;;;;;5103246;28;20032;-78
2023/12/15 06:03:26;;;;;;;82.50;40.42;;;;;;;;;;5095903;28;20055;-73
2023/12/15 06:05:52;;;;;;;93.90;41.28;;;;;;;;;;5091691;28;20031;-75
2023/12/15 06:08:18;;;;;;;90.90;40.65;;;;;;;;;;5091526;28;20040;-74
2023/12/15 06:10:44;;;;;;;100.13;41.50;;;;;;;;;;5091561;28;20039;-74
2023/12/15 06:13:10;;;;;;;97.50;43.05;;;;;;;;;;5094806;28;20101;-75
2023/12/15 06:15:36;;;;;;;94.60;41.10;;;;;;;;;;5094726;28;20023;-75
2023/12/15 06:18:04;;;;;;;93.35;42.00;;;;;;;;;;5099631;28;20025;-74
2023/12/15 06:20:30;;;;;;;99.65;43.08;;;;;;;;;;5110036;28;20114;-77
2023/12/15 06:22:57;;;;;;;97.13;42.53;;;;;;;;;;5112924;28;20066;-74
2023/12/15 06:25:23;;;;;;;107.32;43.13;;;;;;;;;;5107591;28;20023;-75
2023/12/15 06:27:49;;;;;;;105.95;42.08;;;;;;;;;;5101017;28;20028;-75
2023/12/15 06:30:15;;;;;;;109.72;42.83;;;;;;;;;;5115403;28;20024;-75
2023/12/15 06:32:41;;;;;;;111.70;44.90;;;;;;;;;;5114056;28;20024;-77
2023/12/15 06:35:07;;;;;;;116.22;42.63;;;;;;;;;;5111510;28;20107;-76
2023/12/15 06:37:33;;;;;;;106.70;43.60;;;;;;;;;;5111250;28;20035;-74
2023/12/15 06:39:59;;;;;;;114.20;44.08;;;;;;;;;;5119494;28;20091;-76
2023/12/15 06:42:25;;;;;;;118.93;44.97;;;;;;;;;;5118724;28;20462;-75
2023/12/15 06:44:51;;;;;;;112.70;43.55;;;;;;;;;;5111388;28;20023;-74
2023/12/15 06:47:17;;;;;;;117.25;44.45;;;;;;;;;;5120306;28;20513;-74
2023/12/15 06:49:43;;;;;;;116.75;44.42;;;;;;;;;;5113776;28;20028;-74
2023/12/15 06:52:09;;;;;;;122.28;45.67;;;;;;;;;;5113310;28;20020;-73
2023/12/15 06:54:38;;;;;;;122.75;44.85;;;;;;;;;;5115627;28;20036;-74
2023/12/15 06:57:04;;;;;;;121.22;44.65;;;;;;;;;;5117404;28;20012;-75
2023/12/15 06:59:30;;;;;;;117.07;45.70;;;;;;;;;;5103372;28;20043;-74
2023/12/15 07:01:56;;;;;;;129.93;45.92;;;;;;;;;;5110273;28;20046;-75
2023/12/15 07:04:22;;;;;;;124.72;47.08;;;;;;;;;;5112692;28;20063;-75
2023/12/15 07:06:48;;;;;;;131.75;46.75;;;;;;;;;;5115682;28;20150;-73
2023/12/15 07:09:14;;;;;;;117.10;44.80;;;;;;;;;;5108369;28;20028;-74
2023/12/15 07:11:40;;;;;;;118.78;46.72;;;;;;;;;;5115854;28;20031;-75
2023/12/15 07:14:06;;;;;;;116.07;44.38;;;;;;;;;;5115648;28;20470;-73
2023/12/15 07:16:32;;;;;;;123.97;45.38;;;;;;;;;;5115743;28;20019;-73
2023/12/15 07:18:58;;;;;;;133.30;45.42;;;;;;;;;;5115687;28;20027;-77
2023/12/15 07:21:24;;;;;;;112.55;42.28;;;;;;;;;;5116558;28;20030;-75
2023/12/15 07:23:50;;;;;;;141.00;48.75;;;;;;;;;;5115219;28;20415;-75
2023/12/15 07:26:17;;;;;;;124.40;46.53;;;;;;;;;;5114407;28;20055;-75
2023/12/15 07:28:44;;;;;;;140.68;48.38;;;;;;;;;;5114800;28;20068;-74
2023/12/15 07:31:10;;;;;;;135.32;48.03;;;;;;;;;;5114228;28;20023;-75
2023/12/15 07:33:36;;;;;;;133.68;48.63;;;;;;;;;;5114607;28;20026;-74
2023/12/15 07:36:02;;;;;;;142.35;48.63;;;;;;;;;;5114904;28;20012;-75
2023/12/15 07:38:28;;;;;;;135.05;49.13;;;;;;;;;;5116046;28;20062;-74
2023/12/15 07:40:54;;;;;;;130.30;49.25;;;;;;;;;;5114375;28;20031;-75
2023/12/15 07:43:21;;;;;;;139.73;48.92;;;;;;;;;;5114429;28;20027;-74
2023/12/15 07:45:47;;;;;;;140.70;51.83;;;;;;;;;;5114462;28;20023;-73
2023/12/15 07:48:13;;;;;;;130.27;49.42;;;;;;;;;;5117063;28;20030;-73
2023/12/15 07:50:39;;;;;;;129.40;48.85;;;;;;;;;;5115904;28;20023;-74
2023/12/15 07:53:05;;;;;;;136.27;49.58;;;;;;;;;;5114203;28;20114;-74
2023/12/15 07:55:31;;;;;;;126.20;47.70;;;;;;;;;;5114064;28;20080;-74
2023/12/15 07:57:57;;;;;;;140.00;49.20;;;;;;;;;;5114141;28;20039;-74
2023/12/15 08:00:23;;;;;;;144.02;51.00;;;;;;;;;;5114481;28;20028;-74
2023/12/15 08:02:49;;;;;;;164.43;61.90;;;;;;;;;;5117398;28;20030;-74
2023/12/15 08:05:17;;;;;;;134.43;47.80;;;;;;;;;;5115027;28;20491;-75
2023/12/15 08:07:43;;;;;;;136.00;50.15;;;;;;;;;;5113828;28;20051;-76
2023/12/15 08:10:10;;;;;;;130.63;47.67;;;;;;;;;;5114142;28;20051;-74
2023/12/15 08:12:36;;;;;;;130.50;45.28;;;;;;;;;;5115696;28;20023;-73
2023/12/15 08:15:02;;;;;;;141.95;48.53;;;;;;;;;;5114657;28;20019;-74
2023/12/15 08:17:28;;;;;;;120.07;46.20;;;;;;;;;;5115721;28;20019;-74
2023/12/15 08:19:53;;;;;;;126.28;45.85;;;;;;;;;;5115205;28;20034;-75
2023/12/15 08:22:19;;;;;;;139.98;50.25;;;;;;;;;;5116134;28;20034;-77
2023/12/15 08:24:45;;;;;;;128.27;46.83;;;;;;;;;;5117069;28;20058;-73
2023/12/15 08:27:13;;;;;;;118.45;44.17;;;;;;;;;;5120571;28;20019;-73
2023/12/15 08:29:39;;;;;;;122.07;42.00;;;;;;;;;;5119167;28;20020;-75
2023/12/15 08:32:05;;;;;;;114.28;43.65;;;;;;;;;;5117425;28;20032;-75
2023/12/15 08:34:32;;;;;;;126.75;49.33;;;;;;;;;;5115276;28;20019;-74
2023/12/15 08:36:58;;;;;;;109.72;42.38;;;;;;;;;;5114435;28;20020;-74
2023/12/15 08:39:24;;;;;;;110.40;41.65;;;;;;;;;;5113391;28;20023;-75
2023/12/15 08:41:50;;;;;;;119.03;42.28;;;;;;;;;;5112671;28;20026;-74
2023/12/15 08:44:16;;;;;;;120.15;42.67;;;;;;;;;;5114003;28;20098;-74
2023/12/15 08:46:42;;;;;;;122.97;43.50;;;;;;;;;;5113991;28;20016;-75
2023/12/15 08:49:08;;;;;;;110.95;41.53;;;;;;;;;;5113756;28;20079;-74
2023/12/15 08:51:34;;;;;;;113.32;41.67;;;;;;;;;;5113586;28;20019;-73
2023/12/15 08:54:00;;;;;;;113.80;42.10;;;;;;;;;;5113664;28;20534;-76
2023/12/15 08:56:26;;;;;;;119.78;42.80;;;;;;;;;;5113668;28;20020;-74
2023/12/15 08:58:52;;;;;;;110.05;39.08;;;;;;;;;;5113715;28;20034;-73
2023/12/15 09:01:18;;;;;;;104.13;39.88;;;;;;;;;;5114471;28;20427;-74
2023/12/15 09:03:44;;;;;;;100.63;37.72;;;;;;;;;;5108297;28;20103;-73
2023/12/15 09:06:11;;;;;;;98.10;37.05;;;;;;;;;;5103384;28;20383;-74
2023/12/15 09:08:38;;;;;;;83.43;34.30;;;;;;;;;;5110263;28;20027;-74
2023/12/15 09:11:05;;;;;;;101.18;35.53;;;;;;;;;;5091551;28;20038;-74
2023/12/15 09:13:31;;;;;;;89.68;35.72;;;;;;;;;;5094280;28;20073;-77
2023/12/15 09:15:57;;;;;;;83.25;32.67;;;;;;;;;;5113643;28;20019;-74
2023/12/15 09:18:23;;;;;;;89.78;34.92;;;;;;;;;;5113423;28;20054;-73
2023/12/15 09:20:49;;;;;;;92.43;35.50;;;;;;;;;;5111339;28;20055;-75
2023/12/15 09:23:15;;;;;;;86.03;35.88;;;;;;;;;;5112431;28;20107;-73
2023/12/15 09:25:41;;;;;;;97.32;35.97;;;;;;;;;;5091523;28;20032;-74
2023/12/15 09:28:09;;;;;;;86.97;35.83;;;;;;;;;;5093337;28;20028;-74
2023/12/15 09:30:35;;;;;;;104.55;36.75;;;;;;;;;;5094249;28;20069;-72
2023/12/15 09:33:01;;;;;;;104.57;38.67;;;;;;;;;;5094375;28;20020;-74
2023/12/15 09:35:27;;;;;;;100.05;36.67;;;;;;;;;;5116354;28;20484;-74
2023/12/15 09:37:53;;;;;;;105.45;39.30;;;;;;;;;;5117823;28;20024;-74
2023/12/15 09:40:23;;;;;;;115.28;39.97;;;;;;;;;;5111357;28;20027;-74
2023/12/15 09:42:50;;;;;;;122.25;41.17;;;;;;;;;;5112076;28;20036;-74
2023/12/15 09:45:16;;;;;;;111.97;40.72;;;;;;;;;;5111877;28;20478;-74
2023/12/15 09:47:45;;;;;;;151.07;43.05;;;;;;;;;;5112257;28;20076;-75
2023/12/15 09:50:12;;;;;;;128.52;41.40;;;;;;;;;;5111540;28;20031;-73
2023/12/15 09:52:42;;;;;;;136.07;41.63;;;;;;;;;;5112105;28;20051;-73
2023/12/15 09:55:09;;;;;;;128.45;41.75;;;;;;;;;;5112576;28;20043;-73
2023/12/15 09:57:35;;;;;;;129.38;40.58;;;;;;;;;;5112591;28;20027;-74
2023/12/15 10:00:02;;;;;;;132.15;42.30;;;;;;;;;;5113037;28;20042;-75
2023/12/15 10:02:29;;;;;;;120.68;40.67;;;;;;;;;;5112476;28;20049;-74
2023/12/15 10:04:54;;;;;;;106.13;37.50;;;;;;;;;;5112036;28;20116;-73
2023/12/15 10:07:20;;;;;;;132.57;41.00;;;;;;;;;;5112278;28;20095;-73
2023/12/15 10:09:47;;;;;;;127.75;45.95;;;;;;;;;;5111086;28;20031;-74
2023/12/15 10:12:13;;;;;;;132.48;38.08;;;;;;;;;;5112951;28;20023;-74
2023/12/15 10:14:39;;;;;;;129.20;39.08;;;;;;;;;;5112754;28;20482;-74
2023/12/15 10:17:11;;;;;;;118.93;37.53;;;;;;;;;;5110951;28;20029;-74
2023/12/15 10:19:37;;;;;;;117.47;37.88;;;;;;;;;;5111836;28;20478;-74
2023/12/15 10:22:04;;;;;;;103.72;36.45;;;;;;;;;;5112915;28;20035;-73
2023/12/15 10:24:33;;;;;;;112.75;36.17;;;;;;;;;;5112306;28;20023;-74
2023/12/15 10:27:02;;;;;;;125.13;37.60;;;;;;;;;;5112042;28;20023;-73
2023/12/15 10:29:28;;;;;;;127.18;34.75;;;;;;;;;;5111427;28;20501;-73
2023/12/15 10:31:54;;;;;;;103.75;35.58;;;;;;;;;;5111788;28;20554;-73
2023/12/15 10:34:25;;;;;;;102.30;32.17;;;;;;;;;;5110860;28;20016;-75
2023/12/15 10:36:51;;;;;;;113.53;35.17;;;;;;;;;;5112891;28;20033;-74
2023/12/15 10:39:17;;;;;;;107.20;33.70;;;;;;;;;;5123179;28;20027;-74
2023/12/15 10:41:44;;;;;;;99.80;32.95;;;;;;;;;;5118828;28;20027;-74
2023/12/15 10:44:13;;;;;;;110.70;33.80;;;;;;;;;;5112884;28;20027;-73
2023/12/15 10:46:43;;;;;;;92.47;30.83;;;;;;;;;;5112685;28;20074;-73
2023/12/15 10:49:10;;;;;;;119.95;34.15;;;;;;;;;;5113049;28;20077;-74
2023/12/15 10:51:38;;;;;;;92.65;32.13;;;;;;;;;;5112212;28;20015;-74
2023/12/15 10:54:05;;;;;;;96.90;32.33;;;;;;;;;;5112928;28;20705;-76
2023/12/15 10:56:31;;;;;;;112.93;31.02;;;;;;;;;;5112378;28;20043;-75
2023/12/15 10:58:57;;;;;;;107.85;31.95;;;;;;;;;;5111763;28;20035;-75
2023/12/15 11:01:24;;;;;;;108.57;31.58;;;;;;;;;;5111808;28;20030;-74
2023/12/15 11:03:50;;;;;;;91.00;28.23;;;;;;;;;;5112364;28;20024;-75
2023/12/15 11:06:26;;;;;;;96.20;28.42;;;;;;;;;;5115197;28;20031;-76
2023/12/15 11:08:52;;;;;;;91.53;29.17;;;;;;;;;;5116312;28;20020;-74
2023/12/15 11:11:22;;;;;;;91.22;28.83;;;;;;;;;;5116228;28;20035;-74
2023/12/15 11:14:04;;;;;;;90.43;27.48;;;;;;;;;;5114098;28;20020;-75
2023/12/15 11:16:32;;;;;;;80.70;26.33;;;;;;;;;;5115161;28;20019;-75
2023/12/15 11:18:59;;;;;;;96.05;27.67;;;;;;;;;;5114349;28;20024;-75
2023/12/15 11:21:26;;;;;;;90.03;26.27;;;;;;;;;;5115793;28;20062;-75
2023/12/15 11:24:07;;;;;;;99.18;28.05;;;;;;;;;;5113929;28;20031;-73
2023/12/15 11:26:34;;;;;;;90.10;26.60;;;;;;;;;;5113201;28;20016;-75
2023/12/15 11:29:03;;;;;;;85.25;26.27;;;;;;;;;;5112118;28;20055;-75
2023/12/15 11:31:29;;;;;;;99.05;27.50;;;;;;;;;;5113080;28;20153;-75
2023/12/15 11:33:56;;;;;;;89.63;25.38;;;;;;;;;;5113297;28;20023;-75
2023/12/15 11:36:22;;;;;;;89.45;24.95;;;;;;;;;;5113632;28;20019;-75
2023/12/15 11:38:48;;;;;;;91.40;25.48;;;;;;;;;;5112171;28;20012;-77
2023/12/15 11:41:17;;;;;;;90.97;26.17;;;;;;;;;;5114506;28;20026;-75
2023/12/15 11:43:43;;;;;;;82.97;26.13;;;;;;;;;;5113051;28;20111;-75
2023/12/15 11:46:12;;;;;;;90.38;24.25;;;;;;;;;;5113801;28;20016;-75
2023/12/15 11:48:39;;;;;;;70.55;22.95;;;;;;;;;;5113691;28;20034;-76
2023/12/15 11:51:05;;;;;;;95.47;25.30;;;;;;;;;;5111882;28;20541;-75
2023/12/15 11:53:32;;;;;;;93.57;24.92;;;;;;;;;;5111329;28;20043;-74
2023/12/15 11:56:01;;;;;;;80.55;23.83;;;;;;;;;;5112053;28;20019;-74
2023/12/15 11:58:27;;;;;;;79.03;23.15;;;;;;;;;;5110091;28;20012;-75
2023/12/15 12:00:53;;;;;;;88.88;25.30;;;;;;;;;;5111294;28;20008;-77
2023/12/15 12:03:20;;;;;;;135.27;39.75;;;;;;;;;;5109753;28;20041;-76
2023/12/15 12:05:47;;;;;;;73.07;23.00;;;;;;;;;;5112244;28;20019;-76
2023/12/15 12:08:13;;;;;;;78.32;24.25;;;;;;;;;;5112384;28;20061;-75
2023/12/15 12:10:40;;;;;;;84.47;23.02;;;;;;;;;;5112401;28;20047;-76
2023/12/15 12:13:07;;;;;;;76.03;21.67;;;;;;;;;;5112929;28;20038;-75
2023/12/15 12:15:33;;;;;;;78.72;22.00;;;;;;;;;;5111750;28;20023;-76
2023/12/15 12:17:59;;;;;;;88.68;22.73;;;;;;;;;;5112390;28;20020;-75
2023/12/15 12:20:29;;;;;;;88.65;21.85;;;;;;;;;;5111475;28;20101;-75
2023/12/15 12:22:56;;;;;;;81.22;23.50;;;;;;;;;;5114599;28;20498;-75
2023/12/15 12:25:22;;;;;;;86.07;22.83;;;;;;;;;;5112160;28;20030;-75
2023/12/15 12:27:52;;;;;;;76.82;20.40;;;;;;;;;;5109890;28;20022;-74
2023/12/15 12:30:18;;;;;;;63.70;20.27;;;;;;;;;;5111641;28;20031;-75
2023/12/15 12:32:46;;;;;;;85.72;22.02;;;;;;;;;;5110790;28;20016;-74
2023/12/15 12:35:12;;;;;;;74.82;21.38;;;;;;;;;;5111860;28;20020;-74
2023/12/15 12:37:38;;;;;;;79.72;19.77;;;;;;;;;;5111591;28;20064;-74
2023/12/15 12:40:05;;;;;;;75.75;19.75;;;;;;;;;;5111171;28;20539;-75
2023/12/15 12:42:33;;;;;;;81.88;20.85;;;;;;;;;;5114262;28;20016;-75
2023/12/15 12:44:59;;;;;;;75.78;20.92;;;;;;;;;;5112647;28;20027;-75
2023/12/15 12:47:28;;;;;;;76.82;19.52;;;;;;;;;;5112521;28;20026;-75
2023/12/15 12:49:54;;;;;;;55.33;17.42;;;;;;;;;;5112461;28;20386;-75
2023/12/15 12:52:20;;;;;;;68.25;19.33;;;;;;;;;;5113484;28;20095;-75
2023/12/15 12:54:46;;;;;;;75.32;18.52;;;;;;;;;;5112448;28;20024;-74
2023/12/15 12:57:12;;;;;;;72.88;19.08;;;;;;;;;;5112941;28;20020;-75
2023/12/15 12:59:41;;;;;;;81.35;18.60;;;;;;;;;;5113670;28;20083;-73
2023/12/15 13:02:07;;;;;;;67.35;18.10;;;;;;;;;;5115443;28;20471;-73
2023/12/15 13:04:33;;;;;;;73.20;17.45;;;;;;;;;;5118981;28;20028;-74
2023/12/15 13:06:59;;;;;;;74.97;16.85;;;;;;;;;;5112677;28;20020;-74
2023/12/15 13:09:26;;;;;;;66.18;17.30;;;;;;;;;;5112479;28;20032;-72
2023/12/15 13:11:52;;;;;;;80.32;19.15;;;;;;;;;;5111503;28;20103;-75
2023/12/15 13:14:18;;;;;;;82.43;17.40;;;;;;;;;;5111877;28;20576;-77
2023/12/15 13:16:45;;;;;;;76.97;19.48;;;;;;;;;;5110902;28;20042;-75
2023/12/15 13:19:11;;;;;;;81.88;17.65;;;;;;;;;;5111399;28;20026;-75
2023/12/15 13:21:37;;;;;;;75.75;17.10;;;;;;;;;;5114528;28;20107;-75
2023/12/15 13:24:04;;;;;;;75.45;16.23;;;;;;;;;;5093421;28;20103;-74
2023/12/15 13:26:30;;;;;;;74.15;15.57;;;;;;;;;;5093015;28;20427;-74
2023/12/15 13:28:56;;;;;;;74.55;18.60;;;;;;;;;;5091812;28;20505;-75
2023/12/15 13:31:22;;;;;;;84.30;17.60;;;;;;;;;;5094066;28;20031;-76
2023/12/15 13:33:48;;;;;;;73.00;16.55;;;;;;;;;;5073606;28;20078;-74
2023/12/15 13:36:15;;;;;;;80.85;15.02;;;;;;;;;;5092483;28;20024;-74
2023/12/15 13:38:42;;;;;;;79.88;14.63;;;;;;;;;;5107997;28;20028;-75
2023/12/15 13:41:08;;;;;;;71.53;16.20;;;;;;;;;;5114671;28;20024;-75
2023/12/15 13:43:37;;;;;;;62.55;14.75;;;;;;;;;;5112728;28;20046;-74
2023/12/15 13:46:03;;;;;;;76.13;15.52;;;;;;;;;;5113161;28;20028;-75
2023/12/15 13:48:29;;;;;;;61.78;13.15;;;;;;;;;;5113133;28;20046;-74
2023/12/15 13:50:55;;;;;;;70.95;14.65;;;;;;;;;;5113998;28;20028;-74
2023/12/15 13:53:21;;;;;;;66.50;14.02;;;;;;;;;;5110665;28;20019;-74
2023/12/15 13:55:47;;;;;;;72.85;14.20;;;;;;;;;;5112644;28;20106;-73
2023/12/15 13:58:13;;;;;;;63.92;12.88;;;;;;;;;;5111874;28;20024;-74
2023/12/15 14:00:39;;;;;;;70.05;12.88;;;;;;;;;;5111556;28;20031;-75
2023/12/15 14:03:05;;;;;;;70.05;14.38;;;;;;;;;;5109513;28;20034;-74
2023/12/15 14:05:31;;;;;;;86.20;14.02;;;;;;;;;;5107607;28;20065;-75
2023/12/15 14:07:57;;;;;;;75.20;13.90;;;;;;;;;;5101121;28;20039;-74